Main page
METAR-TAF:

METAR-TAF

Airports :

Prague, Czech Republic

Prague 19

latitude: 50-07-17N, longitude: 14-32-37E, elevation: 286 m

Current weather observation

The report was made 58 minutes ago, at 02:00 UTC
Wind 2 kt from variable directions
Temperature 11°C
Humidity 82%
Pressure 1023 hPa
Visibility 10 km or more
no clouds below 1500 m and no cumulonimbus

METAR: LKKB 280200Z VRB02KT CAVOK 11/08 Q1023

Time: 04:58 (02:58 UTC)

Forecast

The report was made 3 hours and 58 minutes ago, at 23:00 UTC
Forecast valid from 28 at 00 UTC to 29 at 00 UTC
Wind 6 kt from the East/Southeast
Visibility 10 km or more
no clouds below 1500 m and no cumulonimbus

TAF: LKKB 272300Z 2800/2900 11006KT CAVOK

Weather observations and forecasts of more than 4000 airports (METAR and TAF reports).

The available stations are represented by yellow and red dots on the map.

Hover mouse over dot to see the name of the station.

Then click to see weather observations and forecasts.

To change the map : click on the green buttons with a black cross to zoom in, on the green button with a dash to zoom out, or on the green arrows for adjacent maps.


METAR-TAF: